Terminal Aerodrome Forecast
Issued by NWS

Home | Current Version | Previous Version | Text Only | Print | Product List | Glossary On
Versions: 1 2 3 4 5 6 7 8 9 10 11 12 13 14 15 16 17 18 19 20 21 22 23 24 25 26
799
FTUS45 KTWC 102340
TAFOLS
TAF
KOLS 102340Z 1100/1124 20011G17KT P6SM SCT250
     FM110200 08005KT P6SM SCT250
     FM110600 VRB03KT P6SM BKN250
     FM111900 25010G18KT P6SM FEW150 SCT250=

USA.gov is the U.S. government's official web portal to all federal, state and local government web resources and services.